createdAt,value
2023-04-04T00:00:47.450Z,6.40
2023-04-04T00:01:49.942Z,6.40
2023-04-04T00:02:52.175Z,6.40
2023-04-04T00:03:54.271Z,6.40
2023-04-04T00:04:56.521Z,6.40
2023-04-04T00:05:58.178Z,6.30
2023-04-04T00:07:00.048Z,6.30
2023-04-04T00:08:03.140Z,6.30
2023-04-04T00:09:04.755Z,6.40
2023-04-04T00:10:07.079Z,6.30
2023-04-04T00:11:08.957Z,6.30
2023-04-04T00:12:11.002Z,6.30
2023-04-04T00:13:13.339Z,6.30
2023-04-04T00:14:15.143Z,6.30
2023-04-04T00:15:21.531Z,6.30
2023-04-04T00:16:24.549Z,6.30
2023-04-04T00:17:26.430Z,6.30
2023-04-04T00:18:28.385Z,6.30
2023-04-04T00:19:30.379Z,6.30
2023-04-04T00:20:32.226Z,6.30
2023-04-04T00:21:33.986Z,6.30
2023-04-04T00:22:35.855Z,6.30
2023-04-04T00:23:37.504Z,6.30
2023-04-04T00:24:39.565Z,6.30
2023-04-04T00:25:41.382Z,6.30
2023-04-04T00:26:44.724Z,6.30
2023-04-04T00:27:47.931Z,6.30
2023-04-04T00:28:49.605Z,6.30
2023-04-04T00:29:51.366Z,6.30
2023-04-04T00:30:53.600Z,6.30
2023-04-04T00:31:55.425Z,6.30
2023-04-04T00:32:58.265Z,6.30
2023-04-04T00:34:00.089Z,6.30
2023-04-04T00:35:02.043Z,6.30
2023-04-04T00:36:03.840Z,6.30
2023-04-04T00:37:07.644Z,6.20
2023-04-04T00:38:09.628Z,6.20
2023-04-04T00:39:11.781Z,6.20
2023-04-04T00:40:13.858Z,6.20
2023-04-04T00:41:19.742Z,6.20
2023-04-04T00:42:21.790Z,6.20
2023-04-04T00:43:23.837Z,6.20
2023-04-04T00:44:26.082Z,6.20
2023-04-04T00:45:27.967Z,6.20
2023-04-04T00:46:29.734Z,6.20
2023-04-04T00:47:31.741Z,6.20
2023-04-04T00:48:34.012Z,6.10
2023-04-04T00:49:37.538Z,6.10
2023-04-04T00:50:39.365Z,6.10
2023-04-04T00:51:41.529Z,6.10
2023-04-04T00:52:43.124Z,6.10
2023-04-04T00:53:46.976Z,6.10
2023-04-04T00:54:48.746Z,6.00
2023-04-04T00:55:51.274Z,6.10
2023-04-04T00:56:55.358Z,6.00
2023-04-04T00:57:59.037Z,6.00
2023-04-04T00:59:01.609Z,6.00
2023-04-04T01:00:06.746Z,6.00
2023-04-04T01:01:11.015Z,6.00
2023-04-04T01:02:12.730Z,6.00
2023-04-04T01:03:14.473Z,6.00
2023-04-04T01:04:16.188Z,6.00
2023-04-04T01:05:19.242Z,6.00
2023-04-04T01:06:21.493Z,5.90
2023-04-04T01:07:23.447Z,5.90
2023-04-04T01:08:28.310Z,5.90
2023-04-04T01:09:30.669Z,5.90
2023-04-04T01:10:33.445Z,5.90
2023-04-04T01:11:35.905Z,5.80
2023-04-04T01:12:40.628Z,5.80
2023-04-04T01:13:43.644Z,5.80
2023-04-04T01:14:45.627Z,5.80
2023-04-04T01:15:49.176Z,5.80
2023-04-04T01:16:52.879Z,5.80
2023-04-04T01:18:02.059Z,5.80
2023-04-04T01:19:08.656Z,5.70
2023-04-04T01:20:20.943Z,5.70
2023-04-04T01:21:23.946Z,5.70
2023-04-04T01:22:27.975Z,5.70
2023-04-04T01:23:52.100Z,5.70
2023-04-04T01:24:56.402Z,5.70
2023-04-04T01:26:05.785Z,5.60
2023-04-04T01:27:07.429Z,5.60
2023-04-04T01:28:09.180Z,5.60
2023-04-04T01:29:12.586Z,5.60
2023-04-04T01:30:16.130Z,5.50
2023-04-04T01:31:26.179Z,5.50
2023-04-04T01:32:41.852Z,5.40
2023-04-04T01:33:51.051Z,5.40
2023-04-04T01:34:57.670Z,5.40
2023-04-04T01:36:05.069Z,5.40
2023-04-04T01:37:32.274Z,5.40
2023-04-04T01:38:38.997Z,5.30
2023-04-04T01:39:56.666Z,5.30
2023-04-04T01:41:03.810Z,5.30
2023-04-04T01:42:07.613Z,5.20
2023-04-04T01:43:09.870Z,5.20
2023-04-04T01:44:12.592Z,5.20
2023-04-04T01:45:14.459Z,5.10
2023-04-04T01:46:19.522Z,5.10
2023-04-04T01:47:21.963Z,5.10
2023-04-04T01:48:23.612Z,5.10
2023-04-04T01:49:25.577Z,5.10
2023-04-04T01:50:27.408Z,5.00
2023-04-04T01:51:31.003Z,5.00
2023-04-04T01:52:35.033Z,5.00
2023-04-04T01:53:37.540Z,4.90
2023-04-04T01:54:39.347Z,4.90
2023-04-04T01:55:42.486Z,4.90
2023-04-04T01:56:44.216Z,4.90
2023-04-04T01:57:46.396Z,4.80
2023-04-04T01:58:48.395Z,4.80
2023-04-04T01:59:50.331Z,4.80
2023-04-04T02:00:51.999Z,4.80
2023-04-04T02:01:53.717Z,4.80
2023-04-04T02:02:55.810Z,4.80
2023-04-04T02:03:58.083Z,4.80
2023-04-04T02:05:00.099Z,4.80
2023-04-04T02:06:03.443Z,4.70
2023-04-04T02:07:05.410Z,4.70
2023-04-04T02:08:07.780Z,4.70
2023-04-04T02:09:09.411Z,4.60
2023-04-04T02:10:13.521Z,4.60
2023-04-04T02:11:15.155Z,4.60
2023-04-04T02:12:17.163Z,4.60
2023-04-04T02:13:19.971Z,4.60
2023-04-04T02:14:21.969Z,4.60
2023-04-04T02:15:23.945Z,4.60
2023-04-04T02:16:25.920Z,4.60
2023-04-04T02:17:28.703Z,4.60
2023-04-04T02:18:30.793Z,4.60
2023-04-04T02:19:32.782Z,4.50
2023-04-04T02:20:34.890Z,4.50
2023-04-04T02:21:36.585Z,4.50
2023-04-04T02:22:38.182Z,4.50
2023-04-04T02:23:40.137Z,4.50
2023-04-04T02:24:42.135Z,4.60
2023-04-04T02:25:43.784Z,4.60
2023-04-04T02:26:45.428Z,4.60
2023-04-04T02:27:47.277Z,4.60
2023-04-04T02:28:48.931Z,4.60
2023-04-04T02:29:50.590Z,4.60
2023-04-04T02:30:52.576Z,4.60
2023-04-04T02:31:54.480Z,4.60
2023-04-04T02:33:00.270Z,4.60
2023-04-04T02:34:02.298Z,4.60
2023-04-04T02:35:04.636Z,4.60
2023-04-04T02:36:06.539Z,4.60
2023-04-04T02:37:08.899Z,4.60
2023-04-04T02:38:10.722Z,4.60
2023-04-04T02:39:12.712Z,4.60
2023-04-04T02:40:14.468Z,4.60
2023-04-04T02:41:16.373Z,4.60
2023-04-04T02:42:18.190Z,4.60
2023-04-04T02:43:19.987Z,4.60
2023-04-04T02:44:22.584Z,4.60
2023-04-04T02:45:24.394Z,4.60
2023-04-04T02:46:26.382Z,4.60
2023-04-04T02:47:28.780Z,4.60
2023-04-04T02:48:30.653Z,4.70
2023-04-04T02:49:32.638Z,4.60
2023-04-04T02:50:34.810Z,4.60
2023-04-04T02:51:37.045Z,4.60
2023-04-04T02:52:39.260Z,4.60
2023-04-04T02:53:40.882Z,4.60
2023-04-04T02:54:42.973Z,4.50
2023-04-04T02:55:44.948Z,4.50
2023-04-04T02:56:47.084Z,4.50
2023-04-04T02:57:52.506Z,4.50
2023-04-04T02:58:54.644Z,4.50
2023-04-04T02:59:57.435Z,4.50
2023-04-04T03:00:59.248Z,4.50
2023-04-04T03:02:01.673Z,4.50
2023-04-04T03:03:03.998Z,4.50
2023-04-04T03:04:06.206Z,4.50
2023-04-04T03:05:08.709Z,4.50
2023-04-04T03:06:11.341Z,4.50
2023-04-04T03:07:14.045Z,4.50
2023-04-04T03:08:15.896Z,4.50
2023-04-04T03:09:17.835Z,4.50
2023-04-04T03:10:19.532Z,4.40
2023-04-04T03:11:21.792Z,4.40
2023-04-04T03:12:24.885Z,4.40
2023-04-04T03:13:27.297Z,4.40
2023-04-04T03:14:30.227Z,4.40
2023-04-04T03:15:33.185Z,4.40
2023-04-04T03:16:36.764Z,4.40
2023-04-04T03:17:40.034Z,4.40
2023-04-04T03:18:43.620Z,4.40
2023-04-04T03:19:45.770Z,4.40
2023-04-04T03:20:47.409Z,4.40
2023-04-04T03:21:49.322Z,4.40
2023-04-04T03:22:51.543Z,4.40
2023-04-04T03:23:53.587Z,4.40
2023-04-04T03:24:55.724Z,4.40
2023-04-04T03:25:57.977Z,4.40
2023-04-04T03:27:02.592Z,4.40
2023-04-04T03:28:10.685Z,4.40
2023-04-04T03:29:12.707Z,4.40
2023-04-04T03:30:14.556Z,4.40
2023-04-04T03:31:16.649Z,4.40
2023-04-04T03:32:18.658Z,4.40
2023-04-04T03:33:22.020Z,4.30
2023-04-04T03:34:24.780Z,4.40
2023-04-04T03:35:28.523Z,4.40
2023-04-04T03:36:31.189Z,4.40
2023-04-04T03:37:33.073Z,4.40
2023-04-04T03:38:34.979Z,4.40
2023-04-04T03:39:36.667Z,4.30
2023-04-04T03:40:38.451Z,4.30
2023-04-04T03:41:41.149Z,4.30
2023-04-04T03:42:43.116Z,4.30
2023-04-04T03:43:45.673Z,4.30
2023-04-04T03:44:47.726Z,4.30
2023-04-04T03:45:49.979Z,4.30
2023-04-04T03:46:51.893Z,4.30
2023-04-04T03:47:53.634Z,4.30
2023-04-04T03:48:56.122Z,4.30
2023-04-04T03:49:58.288Z,4.20
2023-04-04T03:51:00.432Z,4.20
2023-04-04T03:52:04.904Z,4.20
2023-04-04T03:53:06.750Z,4.20
2023-04-04T03:54:08.590Z,4.20
2023-04-04T03:55:10.447Z,4.20
2023-04-04T03:56:12.206Z,4.20
2023-04-04T03:57:13.941Z,4.20
2023-04-04T03:58:15.919Z,4.20
2023-04-04T03:59:17.712Z,4.20
2023-04-04T04:00:19.369Z,4.20
2023-04-04T04:01:22.558Z,4.20
2023-04-04T04:02:24.558Z,4.20
2023-04-04T04:03:26.419Z,4.20
2023-04-04T04:04:28.438Z,4.20
2023-04-04T04:05:30.165Z,4.30
2023-04-04T04:06:32.037Z,4.20
2023-04-04T04:07:33.717Z,4.20
2023-04-04T04:08:35.541Z,4.30
2023-04-04T04:09:37.373Z,4.30
2023-04-04T04:10:39.734Z,4.30
2023-04-04T04:11:41.946Z,4.30
2023-04-04T04:12:43.626Z,4.30
2023-04-04T04:13:45.319Z,4.30
2023-04-04T04:14:47.086Z,4.30
2023-04-04T04:15:49.497Z,4.30
2023-04-04T04:16:53.664Z,4.30
2023-04-04T04:17:56.149Z,4.30
2023-04-04T04:18:58.601Z,4.20
2023-04-04T04:20:00.603Z,4.20
2023-04-04T04:21:04.080Z,4.20
2023-04-04T04:22:05.893Z,4.20
2023-04-04T04:23:07.710Z,4.20
2023-04-04T04:24:10.073Z,4.20
2023-04-04T04:25:11.989Z,4.20
2023-04-04T04:26:13.669Z,4.20
2023-04-04T04:27:15.617Z,4.10
2023-04-04T04:28:17.708Z,4.20
2023-04-04T04:29:19.489Z,4.10
2023-04-04T04:30:21.331Z,4.10
2023-04-04T04:31:23.511Z,4.10
2023-04-04T04:32:26.614Z,4.10
2023-04-04T04:33:32.062Z,4.10
2023-04-04T04:34:35.138Z,4.10
2023-04-04T04:35:40.405Z,4.10
2023-04-04T04:36:43.320Z,4.10
2023-04-04T04:37:45.065Z,4.10
2023-04-04T04:38:47.401Z,4.00
2023-04-04T04:39:49.059Z,4.00
2023-04-04T04:40:50.893Z,4.00
2023-04-04T04:41:53.316Z,4.00
2023-04-04T04:42:56.567Z,4.00
2023-04-04T04:43:58.299Z,4.10
2023-04-04T04:45:00.166Z,4.10
2023-04-04T04:46:01.920Z,4.00
2023-04-04T04:47:04.322Z,4.00
2023-04-04T04:48:06.360Z,4.00
2023-04-04T04:49:08.232Z,4.00
2023-04-04T04:50:10.343Z,4.00
2023-04-04T04:51:12.363Z,4.00
2023-04-04T04:52:14.582Z,4.00
2023-04-04T04:53:16.883Z,4.00
2023-04-04T04:54:18.752Z,3.90
2023-04-04T04:55:20.568Z,4.00
2023-04-04T04:56:22.395Z,4.00
2023-04-04T04:57:24.919Z,4.10
2023-04-04T04:58:28.672Z,3.90
2023-04-04T04:59:30.481Z,3.90
2023-04-04T05:00:32.959Z,4.00
2023-04-04T05:01:37.851Z,4.00
2023-04-04T05:02:39.647Z,4.00
2023-04-04T05:03:41.392Z,4.00
2023-04-04T05:04:45.213Z,4.00
2023-04-04T05:05:47.696Z,4.00
2023-04-04T05:06:49.391Z,4.10
2023-04-04T05:07:51.685Z,4.10
2023-04-04T05:08:53.358Z,4.10
2023-04-04T05:09:55.318Z,4.10
2023-04-04T05:10:57.018Z,4.00
2023-04-04T05:11:58.757Z,4.00
2023-04-04T05:13:00.716Z,4.00
2023-04-04T05:14:02.566Z,4.10
2023-04-04T05:15:05.106Z,4.10
2023-04-04T05:16:08.122Z,4.10
2023-04-04T05:17:09.937Z,4.10
2023-04-04T05:18:13.690Z,4.10
2023-04-04T05:19:15.844Z,4.30
2023-04-04T05:20:17.610Z,4.10
2023-04-04T05:21:20.003Z,4.10
2023-04-04T05:22:22.071Z,4.10
2023-04-04T05:23:24.401Z,4.10
2023-04-04T05:24:26.338Z,4.10
2023-04-04T05:25:29.396Z,4.00
2023-04-04T05:26:31.294Z,4.00
2023-04-04T05:27:33.294Z,4.00
2023-04-04T05:28:35.852Z,4.00
2023-04-04T05:29:37.627Z,4.00
2023-04-04T05:30:41.164Z,4.00
2023-04-04T05:31:43.056Z,4.00
2023-04-04T05:32:45.741Z,3.90
2023-04-04T05:33:47.929Z,3.90
2023-04-04T05:34:49.731Z,3.90
2023-04-04T05:35:52.114Z,3.90
2023-04-04T05:36:54.029Z,3.90
2023-04-04T05:37:57.405Z,3.90
2023-04-04T05:39:00.473Z,3.90
2023-04-04T05:40:02.435Z,3.80
2023-04-04T05:41:04.257Z,3.80
2023-04-04T05:42:06.461Z,3.80
2023-04-04T05:43:09.462Z,3.80
2023-04-04T05:44:11.805Z,3.80
2023-04-04T05:45:13.642Z,3.80
2023-04-04T05:46:15.771Z,4.00
2023-04-04T05:47:17.701Z,3.90
2023-04-04T05:48:19.418Z,3.90
2023-04-04T05:49:21.554Z,3.90
2023-04-04T05:50:23.598Z,4.00
2023-04-04T05:51:26.546Z,4.00
2023-04-04T05:52:28.543Z,4.00
2023-04-04T05:53:31.733Z,4.10
2023-04-04T05:54:33.400Z,4.10
2023-04-04T05:55:35.388Z,4.20
2023-04-04T05:56:37.130Z,4.20
2023-04-04T05:57:50.901Z,4.30
2023-04-04T05:58:53.917Z,4.30
2023-04-04T05:59:55.797Z,4.40
2023-04-04T06:00:57.592Z,4.40
2023-04-04T06:01:59.469Z,4.40
2023-04-04T06:03:01.721Z,4.40
2023-04-04T06:04:03.576Z,4.50
2023-04-04T06:05:05.935Z,4.50
2023-04-04T06:06:07.810Z,4.50
2023-04-04T06:07:10.046Z,4.60
2023-04-04T06:08:12.013Z,4.60
2023-04-04T06:09:13.861Z,4.60
2023-04-04T06:10:17.287Z,4.60
2023-04-04T06:11:19.065Z,4.60
2023-04-04T06:12:21.547Z,4.60
2023-04-04T06:13:23.751Z,4.60
2023-04-04T06:14:26.141Z,4.60
2023-04-04T06:15:30.513Z,4.60
2023-04-04T06:16:37.084Z,4.60
2023-04-04T06:17:39.926Z,4.60
2023-04-04T06:18:41.711Z,4.60
2023-04-04T06:19:43.504Z,4.70
2023-04-04T06:20:45.154Z,4.70
2023-04-04T06:21:46.922Z,4.70
2023-04-04T06:22:49.748Z,4.80
2023-04-04T06:23:51.628Z,4.80
2023-04-04T06:24:53.330Z,4.80
2023-04-04T06:25:55.144Z,4.80
2023-04-04T06:27:00.230Z,4.90
2023-04-04T06:28:06.551Z,4.90
2023-04-04T06:29:08.357Z,4.90
2023-04-04T06:30:11.865Z,4.90
2023-04-04T06:31:17.531Z,4.90
2023-04-04T06:32:21.721Z,4.90
2023-04-04T06:33:23.449Z,4.90
2023-04-04T06:34:25.807Z,4.90
2023-04-04T06:35:27.899Z,5.00
2023-04-04T06:36:29.682Z,5.00
2023-04-04T06:37:31.366Z,4.90
2023-04-04T06:38:33.454Z,4.90
2023-04-04T06:39:35.952Z,4.90
2023-04-04T06:40:38.188Z,4.90
2023-04-04T06:41:40.060Z,4.90
2023-04-04T06:42:49.371Z,4.90
2023-04-04T06:43:51.109Z,5.00
2023-04-04T06:44:52.780Z,5.00
2023-04-04T06:45:54.437Z,5.00
2023-04-04T06:46:56.231Z,5.00
2023-04-04T06:47:58.087Z,5.00
2023-04-04T06:48:59.786Z,5.10
2023-04-04T06:50:01.678Z,5.10
2023-04-04T06:51:06.992Z,5.10
2023-04-04T06:52:08.933Z,5.10
2023-04-04T06:53:11.110Z,5.10
2023-04-04T06:54:14.549Z,5.20
2023-04-04T06:55:17.149Z,5.20
2023-04-04T06:56:18.884Z,5.10
2023-04-04T06:57:20.965Z,5.20
2023-04-04T06:58:22.860Z,5.20
2023-04-04T06:59:24.640Z,5.20
2023-04-04T07:00:26.674Z,5.30
2023-04-04T07:01:28.871Z,5.30
2023-04-04T07:02:31.489Z,5.30
2023-04-04T07:03:33.614Z,5.30
2023-04-04T07:04:35.449Z,5.30
2023-04-04T07:05:39.960Z,5.40
2023-04-04T07:06:42.332Z,5.40
2023-04-04T07:07:45.913Z,5.40
2023-04-04T07:08:47.773Z,5.40
2023-04-04T07:09:49.836Z,5.50
2023-04-04T07:10:51.852Z,5.50
2023-04-04T07:11:53.621Z,5.50
2023-04-04T07:12:55.556Z,5.50
2023-04-04T07:13:57.859Z,5.50
2023-04-04T07:15:01.273Z,5.60
2023-04-04T07:16:04.101Z,5.60
2023-04-04T07:17:17.217Z,5.70
2023-04-04T07:18:27.585Z,5.70
2023-04-04T07:19:29.366Z,5.70
2023-04-04T07:20:32.306Z,5.70
2023-04-04T07:21:33.989Z,5.80
2023-04-04T07:22:41.004Z,5.80
2023-04-04T07:23:42.760Z,5.70
2023-04-04T07:24:44.950Z,5.80
2023-04-04T07:25:47.672Z,5.80
2023-04-04T07:26:49.631Z,5.80
2023-04-04T07:27:57.325Z,5.80
2023-04-04T07:29:08.238Z,5.80
2023-04-04T07:30:11.025Z,5.90
2023-04-04T07:31:14.788Z,5.90
2023-04-04T07:32:16.709Z,5.90
2023-04-04T07:33:18.605Z,5.80
2023-04-04T07:34:20.870Z,5.80
2023-04-04T07:35:23.665Z,5.80
2023-04-04T07:36:25.791Z,5.80
2023-04-04T07:37:27.870Z,5.90
2023-04-04T07:38:29.719Z,5.90
2023-04-04T07:39:32.230Z,5.90
2023-04-04T07:40:34.370Z,6.00
2023-04-04T07:41:36.216Z,6.00
2023-04-04T07:42:44.291Z,6.00
2023-04-04T07:43:46.289Z,6.10
2023-04-04T07:44:50.258Z,6.10
2023-04-04T07:45:54.334Z,6.10
2023-04-04T07:47:08.560Z,6.00
2023-04-04T07:48:11.160Z,6.00
2023-04-04T07:49:13.198Z,6.00
2023-04-04T07:50:15.975Z,6.00
2023-04-04T07:51:20.797Z,6.10
2023-04-04T07:52:22.969Z,6.10
2023-04-04T07:53:24.986Z,6.10
2023-04-04T07:54:27.523Z,6.20
2023-04-04T07:55:29.496Z,6.20
2023-04-04T07:56:31.336Z,6.20
2023-04-04T07:57:33.964Z,6.20
2023-04-04T07:58:36.775Z,6.30
2023-04-04T07:59:39.126Z,6.30
2023-04-04T08:00:42.613Z,6.30
2023-04-04T08:01:46.229Z,6.40
2023-04-04T08:03:01.820Z,6.40
2023-04-04T08:04:04.002Z,6.40
2023-04-04T08:05:07.228Z,6.40
2023-04-04T08:06:09.488Z,6.50
2023-04-04T08:07:11.775Z,6.50
2023-04-04T08:08:14.164Z,6.60
2023-04-04T08:09:18.592Z,6.60
2023-04-04T08:10:22.094Z,6.60
2023-04-04T08:11:25.326Z,6.60
2023-04-04T08:12:27.293Z,6.60
2023-04-04T08:13:29.447Z,6.50
2023-04-04T08:14:31.940Z,6.50
2023-04-04T08:15:34.927Z,6.50
2023-04-04T08:16:37.775Z,6.50
2023-04-04T08:17:39.919Z,6.50
2023-04-04T08:18:41.876Z,6.50
2023-04-04T08:19:43.765Z,6.60
2023-04-04T08:20:47.004Z,6.60
2023-04-04T08:21:49.119Z,6.60
2023-04-04T08:22:52.589Z,6.70
2023-04-04T08:23:56.389Z,6.70
2023-04-04T08:24:58.548Z,6.70
2023-04-04T08:26:03.759Z,6.70
2023-04-04T08:28:24.994Z,6.80
2023-04-04T08:29:29.195Z,6.90
2023-04-04T08:30:32.022Z,6.90
2023-04-04T08:31:34.891Z,7.00
2023-04-04T08:32:37.107Z,7.00
2023-04-04T08:33:47.202Z,7.10
2023-04-04T08:34:49.972Z,7.10
2023-04-04T08:35:52.357Z,7.00
2023-04-04T08:36:54.387Z,7.00
2023-04-04T08:37:57.401Z,7.00
2023-04-04T08:39:02.188Z,7.00
2023-04-04T08:40:06.378Z,7.00
2023-04-04T08:41:10.162Z,7.00
2023-04-04T08:42:15.133Z,7.00
2023-04-04T08:43:18.157Z,7.00
2023-04-04T08:44:23.140Z,7.00
2023-04-04T08:45:31.013Z,7.00
2023-04-04T08:46:33.062Z,7.10
2023-04-04T08:47:36.593Z,7.10
2023-04-04T08:48:41.772Z,7.10
2023-04-04T08:49:50.035Z,7.10
2023-04-04T08:50:54.037Z,7.10
2023-04-04T08:51:58.424Z,7.10
2023-04-04T08:53:03.154Z,7.20
2023-04-04T08:54:06.086Z,7.20
2023-04-04T08:55:12.498Z,7.20
2023-04-04T08:56:15.000Z,7.20
2023-04-04T08:57:17.309Z,7.30
2023-04-04T08:58:19.141Z,7.30
2023-04-04T08:59:25.215Z,7.30
2023-04-04T09:00:28.184Z,7.30
2023-04-04T09:01:30.983Z,7.30
2023-04-04T09:03:02.319Z,7.30
2023-04-04T09:04:05.196Z,7.40
2023-04-04T09:05:09.042Z,7.40
2023-04-04T09:06:11.756Z,7.50
2023-04-04T09:07:16.755Z,7.50
2023-04-04T09:08:18.995Z,7.50
2023-04-04T09:09:22.899Z,7.50
2023-04-04T09:10:29.187Z,7.40
2023-04-04T09:11:33.180Z,7.50
2023-04-04T09:12:37.558Z,7.50
2023-04-04T09:13:42.195Z,7.50
2023-04-04T09:14:49.104Z,7.60
2023-04-04T09:15:55.549Z,7.60
2023-04-04T09:16:58.185Z,7.60
2023-04-04T09:18:00.256Z,7.60
2023-04-04T09:19:02.255Z,7.60
2023-04-04T09:20:26.104Z,7.60
2023-04-04T09:21:29.404Z,7.60
2023-04-04T09:22:33.506Z,7.70
2023-04-04T09:23:35.489Z,7.70
2023-04-04T09:24:41.823Z,7.70
2023-04-04T09:26:54.701Z,7.90
2023-04-04T09:27:58.416Z,7.80
2023-04-04T09:29:01.955Z,7.80
2023-04-04T09:30:05.754Z,7.80
2023-04-04T09:31:10.161Z,7.80
2023-04-04T09:32:19.450Z,7.80
2023-04-04T09:33:24.646Z,7.90
2023-04-04T09:34:29.548Z,7.90
2023-04-04T09:35:38.540Z,7.90
2023-04-04T09:36:42.857Z,7.90
2023-04-04T09:37:45.572Z,8.00
2023-04-04T09:38:49.079Z,8.00
2023-04-04T09:39:51.800Z,8.10
2023-04-04T09:40:55.667Z,8.10
2023-04-04T09:42:01.206Z,8.10
2023-04-04T09:43:05.161Z,8.10
2023-04-04T09:44:08.238Z,8.20
2023-04-04T09:45:19.469Z,8.30
2023-04-04T09:46:28.322Z,8.30
2023-04-04T09:47:32.083Z,8.30
2023-04-04T09:48:36.365Z,8.30
2023-04-04T09:49:40.132Z,8.40
2023-04-04T09:50:48.143Z,8.40
2023-04-04T09:51:55.060Z,8.40
2023-04-04T09:52:59.438Z,8.40
2023-04-04T09:54:01.637Z,8.40
2023-04-04T09:55:05.441Z,8.30
2023-04-04T09:56:07.785Z,8.30
2023-04-04T09:57:10.011Z,8.40
2023-04-04T09:58:17.191Z,8.40
2023-04-04T09:59:19.475Z,8.60
2023-04-04T10:00:21.379Z,8.40
2023-04-04T10:01:24.854Z,8.40
2023-04-04T10:02:28.178Z,8.50
2023-04-04T10:03:31.133Z,8.40
2023-04-04T10:04:35.593Z,8.50
2023-04-04T10:05:37.433Z,8.60
2023-04-04T10:06:39.753Z,8.60
2023-04-04T10:07:44.141Z,8.60
2023-04-04T10:08:45.993Z,8.60
2023-04-04T10:09:50.906Z,8.70
2023-04-04T10:11:10.612Z,8.70
2023-04-04T10:12:15.175Z,8.80
2023-04-04T10:13:25.040Z,8.80
2023-04-04T10:14:35.011Z,8.80
2023-04-04T10:15:38.394Z,8.80
2023-04-04T10:16:47.413Z,8.80
2023-04-04T10:17:53.380Z,8.80
2023-04-04T10:18:55.315Z,8.80
2023-04-04T10:20:04.172Z,8.80
2023-04-04T10:22:15.588Z,8.70
2023-04-04T10:23:19.707Z,8.60
2023-04-04T10:24:23.389Z,8.60
2023-04-04T10:25:25.835Z,8.60
2023-04-04T10:26:29.480Z,8.60
2023-04-04T10:27:32.624Z,8.60
2023-04-04T10:28:35.221Z,8.60
2023-04-04T10:29:37.728Z,8.60
2023-04-04T10:30:55.697Z,8.60
2023-04-04T10:32:14.155Z,8.60
2023-04-04T10:33:31.093Z,8.60
2023-04-04T10:34:45.263Z,8.60
2023-04-04T10:35:50.442Z,8.60
2023-04-04T10:36:58.433Z,8.60
2023-04-04T10:38:03.054Z,8.60
2023-04-04T10:39:07.384Z,8.70
2023-04-04T10:40:10.872Z,8.70
2023-04-04T10:41:14.559Z,8.70
2023-04-04T10:42:17.519Z,8.80
2023-04-04T10:43:23.015Z,8.80
2023-04-04T10:44:34.778Z,8.90
2023-04-04T10:45:40.151Z,8.90
2023-04-04T10:46:46.354Z,9.00
2023-04-04T10:47:49.472Z,9.00
2023-04-04T10:48:52.345Z,9.00
2023-04-04T10:49:54.609Z,9.00
2023-04-04T10:50:57.148Z,9.10
2023-04-04T10:51:58.954Z,9.10
2023-04-04T10:53:02.330Z,9.10
2023-04-04T10:54:04.757Z,9.10
2023-04-04T10:55:11.498Z,9.20
2023-04-04T10:56:13.600Z,9.20
2023-04-04T10:57:16.161Z,9.20
2023-04-04T10:58:18.329Z,9.30
2023-04-04T10:59:20.270Z,9.30
2023-04-04T11:00:24.470Z,9.30
2023-04-04T11:01:58.569Z,9.40
2023-04-04T11:03:02.620Z,9.40
2023-04-04T11:04:21.976Z,9.50
2023-04-04T11:05:31.821Z,9.50
2023-04-04T11:07:08.175Z,9.60
2023-04-04T11:08:14.462Z,9.60
2023-04-04T11:09:53.451Z,9.60
2023-04-04T11:10:55.761Z,9.60
2023-04-04T11:12:11.277Z,9.60
2023-04-04T11:13:22.562Z,9.60
2023-04-04T11:14:32.955Z,9.70
2023-04-04T11:16:05.227Z,9.70
2023-04-04T11:17:09.941Z,9.70
2023-04-04T11:18:30.113Z,9.70
2023-04-04T11:19:34.590Z,9.80
2023-04-04T11:20:38.236Z,9.80
2023-04-04T11:21:40.023Z,9.80
2023-04-04T11:22:42.777Z,9.80
2023-04-04T11:23:47.515Z,9.80
2023-04-04T11:24:50.068Z,9.90
2023-04-04T11:25:59.493Z,9.90
2023-04-04T11:27:01.377Z,9.90
2023-04-04T11:28:14.876Z,10.00
2023-04-04T11:29:54.628Z,10.00
2023-04-04T11:31:15.792Z,10.00
2023-04-04T11:32:52.914Z,10.00
2023-04-04T11:34:12.206Z,10.00
2023-04-04T11:35:14.009Z,9.90
2023-04-04T11:36:41.514Z,9.90
2023-04-04T11:37:44.684Z,10.10
2023-04-04T11:38:50.254Z,10.00
2023-04-04T11:39:57.414Z,10.00
2023-04-04T11:41:00.949Z,10.00
2023-04-04T11:42:15.521Z,10.00
2023-04-04T11:43:20.293Z,10.00
2023-04-04T11:44:23.549Z,10.00
2023-04-04T11:45:27.240Z,10.00
2023-04-04T11:46:29.689Z,10.00
2023-04-04T11:47:32.107Z,10.00
2023-04-04T11:48:33.830Z,10.00
2023-04-04T11:49:38.241Z,10.00
2023-04-04T11:50:41.354Z,10.00
2023-04-04T11:51:43.064Z,10.00
2023-04-04T11:52:45.282Z,10.00
2023-04-04T11:53:48.055Z,10.00
2023-04-04T11:54:50.181Z,10.00
2023-04-04T11:55:53.242Z,10.00
2023-04-04T11:56:54.948Z,10.00
2023-04-04T11:57:58.857Z,10.10
2023-04-04T11:59:11.084Z,10.10
2023-04-04T12:00:32.165Z,10.20
2023-04-04T12:01:34.324Z,10.30
2023-04-04T12:02:37.911Z,10.30
2023-04-04T12:03:39.961Z,10.30
2023-04-04T12:04:46.193Z,10.20
2023-04-04T12:05:49.765Z,10.20
2023-04-04T12:06:53.535Z,10.30
2023-04-04T12:07:55.373Z,10.30
2023-04-04T12:08:57.640Z,10.30
2023-04-04T12:10:00.376Z,10.30
2023-04-04T12:11:09.407Z,10.30
2023-04-04T12:12:16.640Z,10.30
2023-04-04T12:13:18.447Z,10.30
2023-04-04T12:14:23.937Z,10.40
2023-04-04T12:15:29.508Z,10.50
2023-04-04T12:16:31.410Z,10.40
2023-04-04T12:17:40.281Z,10.40
2023-04-04T12:18:42.762Z,10.50
2023-04-04T12:19:44.655Z,10.60
2023-04-04T12:20:49.023Z,10.60
2023-04-04T12:21:52.582Z,10.70
2023-04-04T12:22:54.304Z,10.70
2023-04-04T12:23:57.711Z,10.80
2023-04-04T12:24:59.384Z,10.80
2023-04-04T12:26:04.097Z,10.90
2023-04-04T12:27:06.366Z,10.90
2023-04-04T12:28:08.993Z,11.00
2023-04-04T12:29:13.102Z,11.00
2023-04-04T12:30:15.981Z,11.00
2023-04-04T12:31:18.117Z,11.10
2023-04-04T12:32:20.069Z,11.00
2023-04-04T12:33:22.318Z,11.10
2023-04-04T12:35:31.689Z,11.10
2023-04-04T12:36:33.672Z,11.20
2023-04-04T12:37:36.963Z,11.20
2023-04-04T12:39:01.534Z,11.20
2023-04-04T12:40:03.631Z,11.30
2023-04-04T12:41:16.931Z,11.30
2023-04-04T12:42:23.686Z,11.40
2023-04-04T12:43:31.704Z,11.40
2023-04-04T12:44:36.295Z,11.40
2023-04-04T12:45:43.870Z,11.40
2023-04-04T12:46:47.722Z,11.50
2023-04-04T12:47:57.173Z,11.50
2023-04-04T12:48:59.841Z,11.50
2023-04-04T12:50:01.899Z,11.50
2023-04-04T12:51:05.139Z,11.50
2023-04-04T12:52:09.005Z,11.40
2023-04-04T12:54:30.301Z,11.40
2023-04-04T12:55:33.169Z,11.30
2023-04-04T12:56:36.584Z,11.30
2023-04-04T12:57:39.982Z,11.20
2023-04-04T12:58:47.477Z,11.20
2023-04-04T12:59:49.980Z,11.30
2023-04-04T13:00:54.752Z,11.40
2023-04-04T13:01:57.114Z,11.40
2023-04-04T13:02:59.011Z,11.40
2023-04-04T13:04:04.324Z,11.50
2023-04-04T13:05:07.875Z,11.40
2023-04-04T13:06:16.544Z,11.50
2023-04-04T13:07:28.838Z,11.50
2023-04-04T13:08:31.092Z,11.60
2023-04-04T13:09:35.734Z,11.70
2023-04-04T13:11:00.170Z,11.70
2023-04-04T13:12:04.655Z,11.80
2023-04-04T13:13:06.599Z,11.90
2023-04-04T13:14:08.903Z,11.90
2023-04-04T13:15:13.993Z,11.90
2023-04-04T13:16:39.338Z,12.00
2023-04-04T13:17:45.589Z,12.00
2023-04-04T13:18:48.416Z,12.10
2023-04-04T13:19:50.400Z,12.10
2023-04-04T13:20:58.684Z,12.20
2023-04-04T13:22:03.856Z,12.20
2023-04-04T13:23:05.774Z,12.20
2023-04-04T13:24:08.869Z,12.20
2023-04-04T13:25:12.027Z,12.20
2023-04-04T13:26:14.251Z,12.30
2023-04-04T13:27:15.881Z,12.40
2023-04-04T13:28:17.669Z,12.40
2023-04-04T13:29:19.486Z,12.50
2023-04-04T13:30:21.164Z,12.60
2023-04-04T13:31:23.490Z,12.60
2023-04-04T13:32:25.293Z,12.70
2023-04-04T13:33:26.949Z,12.70
2023-04-04T13:34:28.900Z,12.80
2023-04-04T13:35:31.656Z,12.80
2023-04-04T13:36:33.309Z,12.80
2023-04-04T13:37:34.971Z,12.90
2023-04-04T13:38:37.055Z,12.90
2023-04-04T13:39:38.786Z,13.00
2023-04-04T13:40:40.685Z,13.10
2023-04-04T13:41:42.334Z,13.20
2023-04-04T13:42:43.945Z,13.30
2023-04-04T13:43:45.803Z,13.30
2023-04-04T13:44:47.394Z,13.40
2023-04-04T13:45:49.121Z,13.30
2023-04-04T13:46:50.746Z,13.40
2023-04-04T13:47:52.649Z,13.40
2023-04-04T13:48:54.300Z,13.50
2023-04-04T13:49:56.147Z,13.50
2023-04-04T13:50:57.818Z,13.60
2023-04-04T13:51:59.644Z,13.60
2023-04-04T13:53:01.267Z,13.60
2023-04-04T13:54:02.907Z,13.70
2023-04-04T13:55:06.025Z,13.80
2023-04-04T13:57:12.224Z,13.90
2023-04-04T13:58:13.979Z,14.00
2023-04-04T13:59:16.009Z,14.10
2023-04-04T14:00:18.053Z,14.10
2023-04-04T14:01:21.525Z,14.20
2023-04-04T14:02:23.559Z,14.30
2023-04-04T14:03:25.304Z,14.40
2023-04-04T14:04:26.991Z,14.40
2023-04-04T14:05:28.629Z,14.50
2023-04-04T14:06:31.428Z,14.50
2023-04-04T14:07:33.183Z,14.50
2023-04-04T14:08:35.000Z,14.50
2023-04-04T14:09:36.950Z,14.60
2023-04-04T14:10:38.657Z,14.60
2023-04-04T14:11:40.292Z,14.70
2023-04-04T14:12:42.069Z,14.70